createdAt,value
2023-11-18T00:00:04.782Z,100985.59
2023-11-18T00:05:18.789Z,100987.31
2023-11-18T00:10:26.407Z,100988.25
2023-11-18T00:15:36.108Z,100987.31
2023-11-18T00:20:44.459Z,100996.81
2023-11-18T00:25:51.575Z,101001.03
2023-11-18T00:30:58.585Z,101007.09
2023-11-18T00:36:09.065Z,101010.50
2023-11-18T00:41:16.442Z,101010.50
2023-11-18T00:46:23.823Z,101018.22
2023-11-18T00:51:32.110Z,101016.50
2023-11-18T00:56:38.867Z,101028.50
2023-11-18T01:01:46.050Z,101028.50
2023-11-18T01:06:54.491Z,101025.94
2023-11-18T01:12:08.090Z,101032.69
2023-11-18T01:17:17.966Z,101027.56
2023-11-18T01:22:26.052Z,101027.56
2023-11-18T01:27:34.766Z,101029.34
2023-11-18T01:32:42.646Z,101024.06
2023-11-18T01:37:50.833Z,101020.69
2023-11-18T01:42:57.481Z,101019.00
2023-11-18T01:48:04.462Z,101017.31
2023-11-18T01:53:15.554Z,101020.78
2023-11-18T01:58:24.574Z,101020.66
2023-11-18T02:03:32.028Z,101021.63
2023-11-18T02:08:42.974Z,101036.13
2023-11-18T02:13:54.039Z,101041.31
2023-11-18T02:19:01.679Z,101040.41
2023-11-18T02:24:11.160Z,101044.69
2023-11-18T02:29:19.883Z,101036.06
2023-11-18T02:34:34.076Z,101046.31
2023-11-18T02:39:45.944Z,101045.47
2023-11-18T02:45:01.113Z,101066.00
2023-11-18T02:50:12.408Z,101064.28
2023-11-18T02:55:21.264Z,101065.06
2023-11-18T03:00:30.635Z,101064.19
2023-11-18T03:05:37.872Z,101082.22
2023-11-18T03:10:48.339Z,101078.69
2023-11-18T03:15:58.379Z,101083.91
2023-11-18T03:21:08.084Z,101082.19
2023-11-18T03:26:15.972Z,101098.56
2023-11-18T03:31:25.060Z,101103.66
2023-11-18T03:36:31.483Z,101108.81
2023-11-18T03:41:38.937Z,101111.38
2023-11-18T03:46:49.438Z,101120.72
2023-11-18T03:51:56.210Z,101120.72
2023-11-18T03:57:02.829Z,101121.41
2023-11-18T04:02:12.752Z,101130.63
2023-11-18T04:07:20.169Z,101131.56
2023-11-18T04:12:28.219Z,101132.59
2023-11-18T04:17:39.689Z,101142.78
2023-11-18T04:22:47.174Z,101141.94
2023-11-18T04:27:57.724Z,101143.72
2023-11-18T04:33:05.955Z,101151.44
2023-11-18T04:38:12.651Z,101156.56
2023-11-18T04:43:25.399Z,101161.63
2023-11-18T04:48:41.712Z,101167.44
2023-11-18T04:53:49.828Z,101169.25
2023-11-18T04:59:02.425Z,101173.50
2023-11-18T05:04:15.108Z,101161.44
2023-11-18T05:09:22.223Z,101168.19
2023-11-18T05:14:30.279Z,101179.34
2023-11-18T05:19:38.378Z,101175.06
2023-11-18T05:24:47.179Z,101181.78
2023-11-18T05:29:56.957Z,101191.97
2023-11-18T05:35:06.572Z,101199.03
2023-11-18T05:40:17.268Z,101206.81
2023-11-18T05:45:33.389Z,101217.84
2023-11-18T05:50:41.463Z,101225.34
2023-11-18T05:55:51.423Z,101231.13
2023-11-18T06:00:59.522Z,101243.31
2023-11-18T06:06:09.402Z,101251.00
2023-11-18T06:11:19.161Z,101252.03
2023-11-18T06:16:28.430Z,101259.78
2023-11-18T06:21:41.005Z,101266.50
2023-11-18T06:26:50.924Z,101279.38
2023-11-18T06:31:59.149Z,101288.09
2023-11-18T06:37:08.660Z,101299.22
2023-11-18T06:42:15.586Z,101302.59
2023-11-18T06:47:22.220Z,101314.63
2023-11-18T06:52:30.580Z,101319.59
2023-11-18T06:57:37.447Z,101320.44
2023-11-18T07:02:44.203Z,101327.06
2023-11-18T07:07:52.391Z,101327.75
2023-11-18T07:13:01.393Z,101339.72
2023-11-18T07:18:10.445Z,101343.00
2023-11-18T07:23:24.932Z,101347.41
2023-11-18T07:28:35.760Z,101361.22
2023-11-18T07:33:50.918Z,101369.75
2023-11-18T07:39:02.612Z,101378.97
2023-11-18T07:44:12.165Z,101384.09
2023-11-18T07:49:19.003Z,101392.56
2023-11-18T07:54:30.446Z,101396.13
2023-11-18T07:59:39.247Z,101405.59
2023-11-18T08:04:51.244Z,101418.41
2023-11-18T08:09:59.512Z,101426.16
2023-11-18T08:15:14.039Z,101432.75
2023-11-18T08:20:40.995Z,101421.66
2023-11-18T08:26:13.774Z,101428.28
2023-11-18T08:31:46.360Z,101427.53
2023-11-18T08:37:02.560Z,101428.19
2023-11-18T08:43:36.306Z,101430.00
2023-11-18T08:49:50.513Z,101444.50
2023-11-18T08:55:48.887Z,101444.66
2023-11-18T09:01:33.257Z,101440.94
2023-11-18T09:07:01.729Z,101458.06
2023-11-18T09:12:53.876Z,101451.28
2023-11-18T09:19:38.647Z,101457.25
2023-11-18T09:32:45.694Z,101470.28
2023-11-18T09:39:26.999Z,101463.09
2023-11-18T09:51:18.601Z,101469.34
2023-11-18T09:56:58.913Z,101463.25
2023-11-18T10:02:08.501Z,101467.66
2023-11-18T10:08:34.235Z,101471.97
2023-11-18T10:15:13.261Z,101477.34
2023-11-18T10:21:02.613Z,101476.94
2023-11-18T10:26:42.055Z,101472.78
2023-11-18T10:32:29.898Z,101472.78
2023-11-18T10:38:09.655Z,101477.34
2023-11-18T10:43:30.850Z,101479.06
2023-11-18T10:48:49.880Z,101491.16
2023-11-18T10:54:52.164Z,101492.75
2023-11-18T11:00:20.106Z,101501.41
2023-11-18T11:06:28.089Z,101501.41
2023-11-18T11:12:26.192Z,101505.59
2023-11-18T11:18:11.451Z,101502.25
2023-11-18T11:23:38.746Z,101508.97
2023-11-18T11:35:20.663Z,101521.03
2023-11-18T11:41:21.122Z,101536.94
2023-11-18T11:46:37.146Z,101549.97
2023-11-18T11:51:56.683Z,101545.00
2023-11-18T11:57:07.395Z,101550.31
2023-11-18T12:02:25.911Z,101555.69
2023-11-18T12:07:40.573Z,101563.28
2023-11-18T12:12:47.336Z,101570.09
2023-11-18T12:18:21.915Z,101579.00
2023-11-18T12:23:28.915Z,101585.41
2023-11-18T12:28:39.949Z,101593.25
2023-11-18T12:34:11.126Z,101601.38
2023-11-18T12:39:55.384Z,101613.69
2023-11-18T12:45:33.625Z,101608.38
2023-11-18T12:50:48.080Z,101603.91
2023-11-18T12:55:57.502Z,101613.72
2023-11-18T13:01:04.822Z,101622.41
2023-11-18T13:06:21.957Z,101615.22
2023-11-18T13:11:31.195Z,101625.47
2023-11-18T13:16:43.155Z,101637.88
2023-11-18T13:21:59.536Z,101639.47
2023-11-18T13:27:08.675Z,101638.44
2023-11-18T13:32:16.876Z,101644.31
2023-11-18T13:37:26.535Z,101648.34
2023-11-18T13:42:35.204Z,101657.13
2023-11-18T13:47:46.501Z,101654.31
2023-11-18T13:52:55.738Z,101666.91
2023-11-18T13:58:06.557Z,101676.47
2023-11-18T14:03:14.059Z,101672.50
2023-11-18T14:08:23.483Z,101677.53
2023-11-18T14:13:32.547Z,101677.56
2023-11-18T14:18:43.282Z,101678.25
2023-11-18T14:23:52.167Z,101689.22
2023-11-18T14:29:00.488Z,101690.06
2023-11-18T14:34:08.644Z,101685.00
2023-11-18T14:39:19.657Z,101690.81
2023-11-18T14:44:27.423Z,101687.13
2023-11-18T14:49:34.866Z,101694.06
2023-11-18T14:54:43.779Z,101696.63
2023-11-18T14:59:51.510Z,101691.28
2023-11-18T15:04:59.228Z,101687.31
2023-11-18T15:10:12.577Z,101691.91
2023-11-18T15:15:22.574Z,101692.84
2023-11-18T15:20:30.218Z,101688.66
2023-11-18T15:25:39.293Z,101690.19
2023-11-18T15:30:46.926Z,101698.75
2023-11-18T15:35:53.957Z,101702.28
2023-11-18T15:41:02.572Z,101705.13
2023-11-18T15:46:12.735Z,101705.34
2023-11-18T15:51:21.591Z,101712.91
2023-11-18T15:56:30.245Z,101719.88
2023-11-18T16:01:37.508Z,101717.69
2023-11-18T16:06:44.292Z,101735.56
2023-11-18T16:11:53.954Z,101735.00
2023-11-18T16:17:02.270Z,101728.53
2023-11-18T16:22:10.388Z,101715.41
2023-11-18T16:27:19.566Z,101722.94
2023-11-18T16:32:27.239Z,101731.47
2023-11-18T16:37:34.781Z,101726.25
2023-11-18T16:42:43.702Z,101738.19
2023-11-18T16:47:52.665Z,101734.75
2023-11-18T16:53:01.974Z,101745.13
2023-11-18T16:58:14.305Z,101754.69
2023-11-18T17:03:24.974Z,101748.88
2023-11-18T17:08:32.838Z,101756.56
2023-11-18T17:13:42.930Z,101731.47
2023-11-18T17:18:52.467Z,101739.81
2023-11-18T17:24:02.076Z,101728.56
2023-11-18T17:29:11.775Z,101713.13
2023-11-18T17:34:20.603Z,101713.38
2023-11-18T17:39:28.752Z,101712.38
2023-11-18T17:44:40.605Z,101714.16
2023-11-18T17:49:49.141Z,101719.66
2023-11-18T17:54:56.869Z,101718.63
2023-11-18T18:00:13.757Z,101708.13
2023-11-18T18:05:31.525Z,101709.88
2023-11-18T18:10:39.305Z,101707.31
2023-11-18T18:15:49.709Z,101704.75
2023-11-18T18:21:00.570Z,101700.59
2023-11-18T18:26:11.927Z,101702.19
2023-11-18T18:31:23.393Z,101703.16
2023-11-18T18:36:31.548Z,101707.53
2023-11-18T18:41:40.132Z,101708.41
2023-11-18T18:46:52.812Z,101709.72
2023-11-18T18:51:59.699Z,101709.88
2023-11-18T18:57:10.612Z,101714.38
2023-11-18T19:02:20.604Z,101734.06
2023-11-18T19:07:35.502Z,101738.56
2023-11-18T19:12:49.986Z,101735.03
2023-11-18T19:18:06.313Z,101743.63
2023-11-18T19:23:14.662Z,101745.28
2023-11-18T19:28:26.984Z,101745.94
2023-11-18T19:33:37.346Z,101745.31
2023-11-18T19:38:48.716Z,101742.94
2023-11-18T19:43:58.561Z,101721.53
2023-11-18T19:49:08.401Z,101715.41
2023-11-18T19:54:16.428Z,101696.41
2023-11-18T19:59:23.822Z,101693.69
2023-11-18T20:04:32.885Z,101686.78
2023-11-18T20:09:41.123Z,101686.16
2023-11-18T20:14:50.924Z,101672.22
2023-11-18T20:20:01.996Z,101657.69
2023-11-18T20:25:12.800Z,101644.59
2023-11-18T20:30:27.402Z,101641.25
2023-11-18T20:35:36.776Z,101643.88
2023-11-18T20:40:46.779Z,101647.31
2023-11-18T20:45:56.181Z,101637.88
2023-11-18T20:51:06.895Z,101623.34
2023-11-18T20:56:14.925Z,101636.50
2023-11-18T21:01:24.782Z,101634.78
2023-11-18T21:06:34.151Z,101628.47
2023-11-18T21:11:42.440Z,101618.00
2023-11-18T21:16:51.818Z,101611.97
2023-11-18T21:22:00.752Z,101600.06
2023-11-18T21:27:13.966Z,101593.22
2023-11-18T21:32:23.696Z,101588.97
2023-11-18T21:37:32.948Z,101600.13
2023-11-18T21:42:40.679Z,101626.22
2023-11-18T21:47:50.824Z,101623.78
2023-11-18T21:53:08.607Z,101627.06
2023-11-18T21:58:18.456Z,101644.34
2023-11-18T22:03:26.485Z,101638.38
2023-11-18T22:08:36.632Z,101661.66
2023-11-18T22:13:46.513Z,101658.25
2023-11-18T22:18:54.075Z,101669.50
2023-11-18T22:24:02.694Z,101660.84
2023-11-18T22:29:09.929Z,101669.50
2023-11-18T22:34:16.774Z,101638.34
2023-11-18T22:39:25.609Z,101607.91
2023-11-18T22:44:34.239Z,101609.84
2023-11-18T22:49:42.810Z,101561.44
2023-11-18T22:54:51.805Z,101555.59
2023-11-18T23:00:00.330Z,101551.22
2023-11-18T23:05:14.742Z,101566.88
2023-11-18T23:10:24.682Z,101570.59
2023-11-18T23:15:31.864Z,101560.16
2023-11-18T23:20:39.480Z,101547.22
2023-11-18T23:25:47.828Z,101540.44
2023-11-18T23:31:00.844Z,101531.88
2023-11-18T23:36:09.187Z,101534.53
2023-11-18T23:41:18.367Z,101550.09
2023-11-18T23:46:28.488Z,101549.38
2023-11-18T23:51:36.409Z,101550.22
2023-11-18T23:56:45.295Z,101538.25
